West Wendover, Nevada
Current Conditions -  °F | °C
As of 3:15 AM on Saturday 22 Nov 2014 (Local Time) from KENV Reporting Station
Overcast Overcast  
Wind Chill: 30°   Ceiling: 6500
Heat Index: 30°   Visibility: 10mi
Dew Point: 21°   Wind: 3mph
Humidity: 69%   Direction: 150°SSE
Pressure: 29.97"   Gusts: NA
Location:  40.74°N, 114.07°W
Report Text: KENV 221015Z AUTO 15003KT 10SM BKN065 OVC100 M01/M06 A2997 RMK AO1
Loading
Personal Weather Stations






























Interactive Weather Map New forecast layout! Learn more

10-Day Weather Forecast

Advertisements
Track Severe Weather on mobile